sensor_id;sensor_type;location;lat;lon;timestamp;temperature;humidity
1996;DHT22;38556;47.068;15.408;2023-04-24T00:00:03;12.60;99.90
1996;DHT22;38556;47.068;15.408;2023-04-24T00:02:31;12.60;99.90
1996;DHT22;38556;47.068;15.408;2023-04-24T00:05:00;12.60;99.90
1996;DHT22;38556;47.068;15.408;2023-04-24T00:07:28;12.60;99.90
1996;DHT22;38556;47.068;15.408;2023-04-24T00:09:56;16.50;99.90
1996;DHT22;38556;47.068;15.408;2023-04-24T00:12:24;12.40;99.90
1996;DHT22;38556;47.068;15.408;2023-04-24T00:14:51;12.50;99.90
1996;DHT22;38556;47.068;15.408;2023-04-24T00:19:46;12.50;99.90
1996;DHT22;38556;47.068;15.408;2023-04-24T00:22:15;12.50;99.90
1996;DHT22;38556;47.068;15.408;2023-04-24T00:24:42;12.50;99.90
1996;DHT22;38556;47.068;15.408;2023-04-24T00:27:10;12.60;99.90
1996;DHT22;38556;47.068;15.408;2023-04-24T00:29:37;12.50;99.90
1996;DHT22;38556;47.068;15.408;2023-04-24T00:32:04;12.60;99.90
1996;DHT22;38556;47.068;15.408;2023-04-24T00:34:32;12.60;99.90
1996;DHT22;38556;47.068;15.408;2023-04-24T00:36:59;12.60;99.90
1996;DHT22;38556;47.068;15.408;2023-04-24T00:39:27;12.60;99.90
1996;DHT22;38556;47.068;15.408;2023-04-24T00:41:55;12.70;99.90
1996;DHT22;38556;47.068;15.408;2023-04-24T00:44:22;12.60;99.90
1996;DHT22;38556;47.068;15.408;2023-04-24T00:46:50;12.60;99.90
1996;DHT22;38556;47.068;15.408;2023-04-24T00:49:20;12.60;99.90
1996;DHT22;38556;47.068;15.408;2023-04-24T00:51:48;12.60;99.90
1996;DHT22;38556;47.068;15.408;2023-04-24T00:54:17;12.60;99.90
1996;DHT22;38556;47.068;15.408;2023-04-24T00:56:46;12.60;99.90
1996;DHT22;38556;47.068;15.408;2023-04-24T00:59:14;12.60;99.90
1996;DHT22;38556;47.068;15.408;2023-04-24T01:01:43;12.60;99.90
1996;DHT22;38556;47.068;15.408;2023-04-24T01:04:11;12.60;99.90
1996;DHT22;38556;47.068;15.408;2023-04-24T01:06:40;12.60;99.90
1996;DHT22;38556;47.068;15.408;2023-04-24T01:09:09;12.60;99.90
1996;DHT22;38556;47.068;15.408;2023-04-24T01:11:37;12.50;99.90
1996;DHT22;38556;47.068;15.408;2023-04-24T01:14:06;12.40;99.90
1996;DHT22;38556;47.068;15.408;2023-04-24T01:16:34;12.20;99.90
1996;DHT22;38556;47.068;15.408;2023-04-24T01:19:01;12.10;99.90
1996;DHT22;38556;47.068;15.408;2023-04-24T01:21:30;12.10;99.90
1996;DHT22;38556;47.068;15.408;2023-04-24T01:24:01;12.20;99.90
1996;DHT22;38556;47.068;15.408;2023-04-24T01:26:29;12.30;99.90
1996;DHT22;38556;47.068;15.408;2023-04-24T01:28:56;12.30;99.90
1996;DHT22;38556;47.068;15.408;2023-04-24T01:31:24;12.30;99.90
1996;DHT22;38556;47.068;15.408;2023-04-24T01:33:51;12.30;99.90
1996;DHT22;38556;47.068;15.408;2023-04-24T01:36:20;12.10;99.90
1996;DHT22;38556;47.068;15.408;2023-04-24T01:38:48;12.00;99.90
1996;DHT22;38556;47.068;15.408;2023-04-24T01:41:16;11.90;99.90
1996;DHT22;38556;47.068;15.408;2023-04-24T01:43:44;11.90;99.90
1996;DHT22;38556;47.068;15.408;2023-04-24T01:46:11;11.80;99.90
1996;DHT22;38556;47.068;15.408;2023-04-24T01:48:38;11.80;99.90
1996;DHT22;38556;47.068;15.408;2023-04-24T01:51:06;11.80;99.90
1996;DHT22;38556;47.068;15.408;2023-04-24T01:53:33;11.80;99.90
1996;DHT22;38556;47.068;15.408;2023-04-24T01:56:01;11.70;99.90
1996;DHT22;38556;47.068;15.408;2023-04-24T01:58:30;11.50;99.90
1996;DHT22;38556;47.068;15.408;2023-04-24T02:00:57;11.60;99.90
1996;DHT22;38556;47.068;15.408;2023-04-24T02:03:25;11.70;99.90
1996;DHT22;38556;47.068;15.408;2023-04-24T02:05:52;11.80;99.90
1996;DHT22;38556;47.068;15.408;2023-04-24T02:08:19;11.90;99.90
1996;DHT22;38556;47.068;15.408;2023-04-24T02:10:46;12.00;99.90
1996;DHT22;38556;47.068;15.408;2023-04-24T02:13:14;12.10;99.90
1996;DHT22;38556;47.068;15.408;2023-04-24T02:15:42;12.20;99.90
1996;DHT22;38556;47.068;15.408;2023-04-24T02:18:10;12.10;99.90
1996;DHT22;38556;47.068;15.408;2023-04-24T02:20:38;11.90;99.90
1996;DHT22;38556;47.068;15.408;2023-04-24T02:25:33;11.80;99.90
1996;DHT22;38556;47.068;15.408;2023-04-24T02:28:00;11.90;99.90
1996;DHT22;38556;47.068;15.408;2023-04-24T02:30:28;11.90;99.90
1996;DHT22;38556;47.068;15.408;2023-04-24T02:32:57;12.00;99.90
1996;DHT22;38556;47.068;15.408;2023-04-24T02:35:24;11.90;99.90
1996;DHT22;38556;47.068;15.408;2023-04-24T02:37:51;11.70;99.90
1996;DHT22;38556;47.068;15.408;2023-04-24T02:40:18;11.40;99.90
1996;DHT22;38556;47.068;15.408;2023-04-24T02:42:45;11.50;99.90
1996;DHT22;38556;47.068;15.408;2023-04-24T02:45:13;11.50;99.90
1996;DHT22;38556;47.068;15.408;2023-04-24T02:47:40;11.60;99.90
1996;DHT22;38556;47.068;15.408;2023-04-24T02:50:09;11.70;99.90
1996;DHT22;38556;47.068;15.408;2023-04-24T02:52:36;11.80;99.90
1996;DHT22;38556;47.068;15.408;2023-04-24T02:55:05;11.80;99.90
1996;DHT22;38556;47.068;15.408;2023-04-24T02:57:34;11.90;99.90
1996;DHT22;38556;47.068;15.408;2023-04-24T03:00:01;11.90;99.90
1996;DHT22;38556;47.068;15.408;2023-04-24T03:02:28;11.90;99.90
1996;DHT22;38556;47.068;15.408;2023-04-24T03:07:25;12.00;99.90
1996;DHT22;38556;47.068;15.408;2023-04-24T03:09:52;12.00;99.90
1996;DHT22;38556;47.068;15.408;2023-04-24T03:12:19;12.00;99.90
1996;DHT22;38556;47.068;15.408;2023-04-24T03:14:49;12.00;99.90
1996;DHT22;38556;47.068;15.408;2023-04-24T03:17:16;11.90;99.90
1996;DHT22;38556;47.068;15.408;2023-04-24T03:19:44;11.60;99.90
1996;DHT22;38556;47.068;15.408;2023-04-24T03:22:11;11.60;99.90
1996;DHT22;38556;47.068;15.408;2023-04-24T03:24:40;11.60;99.90
1996;DHT22;38556;47.068;15.408;2023-04-24T03:27:07;11.70;99.90
1996;DHT22;38556;47.068;15.408;2023-04-24T03:29:34;11.80;99.90
1996;DHT22;38556;47.068;15.408;2023-04-24T03:32:02;11.90;99.90
1996;DHT22;38556;47.068;15.408;2023-04-24T03:34:29;12.00;99.90
1996;DHT22;38556;47.068;15.408;2023-04-24T03:36:57;12.00;99.90
1996;DHT22;38556;47.068;15.408;2023-04-24T03:39:24;12.10;99.90
1996;DHT22;38556;47.068;15.408;2023-04-24T03:41:52;12.10;99.90
1996;DHT22;38556;47.068;15.408;2023-04-24T03:44:20;12.10;99.90
1996;DHT22;38556;47.068;15.408;2023-04-24T03:46:47;12.10;99.90
1996;DHT22;38556;47.068;15.408;2023-04-24T03:49:14;12.10;99.90
1996;DHT22;38556;47.068;15.408;2023-04-24T03:51:41;12.00;99.90
1996;DHT22;38556;47.068;15.408;2023-04-24T03:54:08;12.10;99.90
1996;DHT22;38556;47.068;15.408;2023-04-24T03:56:36;12.10;99.90
1996;DHT22;38556;47.068;15.408;2023-04-24T03:59:04;12.10;99.90
1996;DHT22;38556;47.068;15.408;2023-04-24T04:01:32;12.10;99.90
1996;DHT22;38556;47.068;15.408;2023-04-24T04:04:02;12.10;99.90
1996;DHT22;38556;47.068;15.408;2023-04-24T04:06:29;12.10;99.90
1996;DHT22;38556;47.068;15.408;2023-04-24T04:08:58;12.10;99.90
1996;DHT22;38556;47.068;15.408;2023-04-24T04:11:25;12.10;99.90
1996;DHT22;38556;47.068;15.408;2023-04-24T04:16:22;12.20;99.90
1996;DHT22;38556;47.068;15.408;2023-04-24T04:21:17;12.20;99.90
1996;DHT22;38556;47.068;15.408;2023-04-24T04:23:45;12.20;99.90
1996;DHT22;38556;47.068;15.408;2023-04-24T04:28:40;12.20;99.90
1996;DHT22;38556;47.068;15.408;2023-04-24T04:31:07;12.30;99.90
1996;DHT22;38556;47.068;15.408;2023-04-24T04:33:36;12.30;99.90
1996;DHT22;38556;47.068;15.408;2023-04-24T04:36:05;12.30;99.90
1996;DHT22;38556;47.068;15.408;2023-04-24T04:41:01;12.30;99.90
1996;DHT22;38556;47.068;15.408;2023-04-24T04:43:28;12.30;99.90
1996;DHT22;38556;47.068;15.408;2023-04-24T04:45:57;12.10;99.90
1996;DHT22;38556;47.068;15.408;2023-04-24T04:50:56;11.90;99.90
1996;DHT22;38556;47.068;15.408;2023-04-24T04:53:23;11.90;99.90
1996;DHT22;38556;47.068;15.408;2023-04-24T04:55:51;11.80;99.90
1996;DHT22;38556;47.068;15.408;2023-04-24T04:58:18;8.90;99.90
1996;DHT22;38556;47.068;15.408;2023-04-24T05:00:46;12.00;99.90
1996;DHT22;38556;47.068;15.408;2023-04-24T05:03:13;12.10;99.90
1996;DHT22;38556;47.068;15.408;2023-04-24T05:05:40;12.20;99.90
1996;DHT22;38556;47.068;15.408;2023-04-24T05:08:10;12.30;99.90
1996;DHT22;38556;47.068;15.408;2023-04-24T05:10:37;12.30;99.90
1996;DHT22;38556;47.068;15.408;2023-04-24T05:13:04;12.30;99.90
1996;DHT22;38556;47.068;15.408;2023-04-24T05:15:31;11.50;99.90
1996;DHT22;38556;47.068;15.408;2023-04-24T05:17:59;11.30;99.90
1996;DHT22;38556;47.068;15.408;2023-04-24T05:20:26;11.30;99.90
1996;DHT22;38556;47.068;15.408;2023-04-24T05:22:53;11.30;99.90
1996;DHT22;38556;47.068;15.408;2023-04-24T05:25:22;11.20;99.90
1996;DHT22;38556;47.068;15.408;2023-04-24T05:27:49;11.30;99.90
1996;DHT22;38556;47.068;15.408;2023-04-24T05:30:16;11.30;99.90
1996;DHT22;38556;47.068;15.408;2023-04-24T05:32:44;11.40;99.90
1996;DHT22;38556;47.068;15.408;2023-04-24T05:35:11;11.70;99.90
1996;DHT22;38556;47.068;15.408;2023-04-24T05:37:39;11.90;99.90
1996;DHT22;38556;47.068;15.408;2023-04-24T05:40:07;11.90;99.90
1996;DHT22;38556;47.068;15.408;2023-04-24T05:42:36;12.00;99.90
1996;DHT22;38556;47.068;15.408;2023-04-24T05:47:32;12.20;99.90
1996;DHT22;38556;47.068;15.408;2023-04-24T05:49:59;12.20;99.90
1996;DHT22;38556;47.068;15.408;2023-04-24T05:52:26;12.40;99.90
1996;DHT22;38556;47.068;15.408;2023-04-24T05:54:53;12.40;99.90
1996;DHT22;38556;47.068;15.408;2023-04-24T05:57:21;12.40;99.90
1996;DHT22;38556;47.068;15.408;2023-04-24T05:59:50;12.50;99.90
1996;DHT22;38556;47.068;15.408;2023-04-24T06:02:17;12.60;99.90
1996;DHT22;38556;47.068;15.408;2023-04-24T06:04:45;12.60;99.90
1996;DHT22;38556;47.068;15.408;2023-04-24T06:07:12;12.70;99.90
1996;DHT22;38556;47.068;15.408;2023-04-24T06:09:39;12.70;99.90
1996;DHT22;38556;47.068;15.408;2023-04-24T06:12:06;12.70;99.90
1996;DHT22;38556;47.068;15.408;2023-04-24T06:14:35;12.60;99.90
1996;DHT22;38556;47.068;15.408;2023-04-24T06:17:03;12.70;99.90
1996;DHT22;38556;47.068;15.408;2023-04-24T06:19:30;12.80;99.90
1996;DHT22;38556;47.068;15.408;2023-04-24T06:21:58;12.90;99.90
1996;DHT22;38556;47.068;15.408;2023-04-24T06:24:27;12.90;99.90
1996;DHT22;38556;47.068;15.408;2023-04-24T06:26:55;13.00;99.90
1996;DHT22;38556;47.068;15.408;2023-04-24T06:29:23;13.10;99.90
1996;DHT22;38556;47.068;15.408;2023-04-24T06:31:50;13.20;99.90
1996;DHT22;38556;47.068;15.408;2023-04-24T06:34:19;13.30;99.90
1996;DHT22;38556;47.068;15.408;2023-04-24T06:36:47;13.30;99.90
1996;DHT22;38556;47.068;15.408;2023-04-24T06:39:14;13.30;99.90
1996;DHT22;38556;47.068;15.408;2023-04-24T06:41:41;13.40;99.90
1996;DHT22;38556;47.068;15.408;2023-04-24T06:44:08;13.40;99.90
1996;DHT22;38556;47.068;15.408;2023-04-24T06:46:36;13.50;99.90
1996;DHT22;38556;47.068;15.408;2023-04-24T06:49:03;13.60;99.90
1996;DHT22;38556;47.068;15.408;2023-04-24T06:51:32;13.80;99.90
1996;DHT22;38556;47.068;15.408;2023-04-24T06:53:59;13.70;99.90
1996;DHT22;38556;47.068;15.408;2023-04-24T06:56:28;13.90;99.90
1996;DHT22;38556;47.068;15.408;2023-04-24T06:58:55;13.90;99.90
1996;DHT22;38556;47.068;15.408;2023-04-24T07:01:23;14.00;99.90
1996;DHT22;38556;47.068;15.408;2023-04-24T07:03:50;14.00;99.90
1996;DHT22;38556;47.068;15.408;2023-04-24T07:06:18;14.00;99.90
1996;DHT22;38556;47.068;15.408;2023-04-24T07:08:49;13.90;99.90
1996;DHT22;38556;47.068;15.408;2023-04-24T07:11:17;13.90;99.90
1996;DHT22;38556;47.068;15.408;2023-04-24T07:13:44;13.80;99.90
1996;DHT22;38556;47.068;15.408;2023-04-24T07:16:11;13.70;99.90
1996;DHT22;38556;47.068;15.408;2023-04-24T07:18:39;13.50;99.90
1996;DHT22;38556;47.068;15.408;2023-04-24T07:21:06;13.40;99.90
1996;DHT22;38556;47.068;15.408;2023-04-24T07:23:34;13.50;99.90
1996;DHT22;38556;47.068;15.408;2023-04-24T07:26:03;13.60;99.90
1996;DHT22;38556;47.068;15.408;2023-04-24T07:28:30;13.70;99.90
1996;DHT22;38556;47.068;15.408;2023-04-24T07:30:58;13.80;99.90
1996;DHT22;38556;47.068;15.408;2023-04-24T07:33:26;13.80;99.90
1996;DHT22;38556;47.068;15.408;2023-04-24T07:35:53;13.90;99.90
1996;DHT22;38556;47.068;15.408;2023-04-24T07:38:21;14.00;99.90
1996;DHT22;38556;47.068;15.408;2023-04-24T07:40:48;14.00;99.90
1996;DHT22;38556;47.068;15.408;2023-04-24T07:43:17;14.00;99.90
1996;DHT22;38556;47.068;15.408;2023-04-24T07:45:44;14.00;99.90
1996;DHT22;38556;47.068;15.408;2023-04-24T07:48:12;14.10;99.90
1996;DHT22;38556;47.068;15.408;2023-04-24T07:50:41;14.10;99.90
1996;DHT22;38556;47.068;15.408;2023-04-24T07:53:09;14.10;99.90
1996;DHT22;38556;47.068;15.408;2023-04-24T07:55:37;14.10;99.90
1996;DHT22;38556;47.068;15.408;2023-04-24T07:58:05;14.10;99.90
1996;DHT22;38556;47.068;15.408;2023-04-24T08:00:33;14.10;99.90
1996;DHT22;38556;47.068;15.408;2023-04-24T08:03:01;14.10;99.90
1996;DHT22;38556;47.068;15.408;2023-04-24T08:05:28;14.10;99.90
1996;DHT22;38556;47.068;15.408;2023-04-24T08:07:56;14.20;99.90
1996;DHT22;38556;47.068;15.408;2023-04-24T08:10:23;14.20;99.90
1996;DHT22;38556;47.068;15.408;2023-04-24T08:12:51;14.10;99.90
1996;DHT22;38556;47.068;15.408;2023-04-24T08:15:18;14.10;99.90
1996;DHT22;38556;47.068;15.408;2023-04-24T08:17:47;14.10;99.90
1996;DHT22;38556;47.068;15.408;2023-04-24T08:20:15;14.10;99.90
1996;DHT22;38556;47.068;15.408;2023-04-24T08:22:43;14.10;99.90
1996;DHT22;38556;47.068;15.408;2023-04-24T08:25:13;14.10;99.90
1996;DHT22;38556;47.068;15.408;2023-04-24T08:27:40;14.00;99.90
1996;DHT22;38556;47.068;15.408;2023-04-24T08:30:08;14.00;99.90
1996;DHT22;38556;47.068;15.408;2023-04-24T08:32:36;14.10;99.90
1996;DHT22;38556;47.068;15.408;2023-04-24T08:35:05;14.10;99.90
1996;DHT22;38556;47.068;15.408;2023-04-24T08:37:35;14.10;99.90
1996;DHT22;38556;47.068;15.408;2023-04-24T08:40:06;14.10;99.90
1996;DHT22;38556;47.068;15.408;2023-04-24T08:42:38;14.10;99.90
1996;DHT22;38556;47.068;15.408;2023-04-24T08:45:07;14.10;99.90
1996;DHT22;38556;47.068;15.408;2023-04-24T08:47:35;14.10;99.90
1996;DHT22;38556;47.068;15.408;2023-04-24T08:50:07;14.10;99.90
1996;DHT22;38556;47.068;15.408;2023-04-24T08:52:35;14.10;99.90
1996;DHT22;38556;47.068;15.408;2023-04-24T08:55:04;14.00;99.90
1996;DHT22;38556;47.068;15.408;2023-04-24T08:57:32;13.90;99.90
1996;DHT22;38556;47.068;15.408;2023-04-24T09:00:02;13.90;99.90
1996;DHT22;38556;47.068;15.408;2023-04-24T09:02:30;13.90;99.90
1996;DHT22;38556;47.068;15.408;2023-04-24T09:05:00;13.70;99.90
1996;DHT22;38556;47.068;15.408;2023-04-24T09:07:30;13.70;99.90
1996;DHT22;38556;47.068;15.408;2023-04-24T09:10:01;13.70;99.90
1996;DHT22;38556;47.068;15.408;2023-04-24T09:12:28;13.50;99.90
1996;DHT22;38556;47.068;15.408;2023-04-24T09:14:56;13.10;99.90
1996;DHT22;38556;47.068;15.408;2023-04-24T09:17:24;13.00;99.90
1996;DHT22;38556;47.068;15.408;2023-04-24T09:19:55;12.80;99.90
1996;DHT22;38556;47.068;15.408;2023-04-24T09:22:22;12.60;99.90
1996;DHT22;38556;47.068;15.408;2023-04-24T09:25:00;12.20;99.90
1996;DHT22;38556;47.068;15.408;2023-04-24T09:27:28;12.10;99.90
1996;DHT22;38556;47.068;15.408;2023-04-24T09:29:57;12.00;99.90
1996;DHT22;38556;47.068;15.408;2023-04-24T09:32:25;12.00;99.90
1996;DHT22;38556;47.068;15.408;2023-04-24T09:35:06;11.90;99.90
1996;DHT22;38556;47.068;15.408;2023-04-24T09:37:39;11.80;99.90
1996;DHT22;38556;47.068;15.408;2023-04-24T09:40:15;11.70;99.90
1996;DHT22;38556;47.068;15.408;2023-04-24T09:42:44;11.80;99.90
1996;DHT22;38556;47.068;15.408;2023-04-24T09:45:12;11.90;99.90
1996;DHT22;38556;47.068;15.408;2023-04-24T09:47:41;12.10;99.90
1996;DHT22;38556;47.068;15.408;2023-04-24T09:50:10;12.20;99.90
1996;DHT22;38556;47.068;15.408;2023-04-24T09:52:40;12.40;99.90
1996;DHT22;38556;47.068;15.408;2023-04-24T09:55:18;12.40;99.90
1996;DHT22;38556;47.068;15.408;2023-04-24T09:57:50;12.60;99.90
1996;DHT22;38556;47.068;15.408;2023-04-24T10:00:23;12.70;99.90
1996;DHT22;38556;47.068;15.408;2023-04-24T10:02:56;12.80;99.90
1996;DHT22;38556;47.068;15.408;2023-04-24T10:05:24;12.90;99.90
1996;DHT22;38556;47.068;15.408;2023-04-24T10:07:56;13.10;99.90
1996;DHT22;38556;47.068;15.408;2023-04-24T10:10:25;13.10;99.90
1996;DHT22;38556;47.068;15.408;2023-04-24T10:12:53;13.10;99.90
1996;DHT22;38556;47.068;15.408;2023-04-24T10:15:20;13.10;99.90
1996;DHT22;38556;47.068;15.408;2023-04-24T10:17:48;13.10;99.90
1996;DHT22;38556;47.068;15.408;2023-04-24T10:20:22;13.20;99.90
1996;DHT22;38556;47.068;15.408;2023-04-24T10:22:52;13.20;99.90
1996;DHT22;38556;47.068;15.408;2023-04-24T10:25:20;13.10;99.90
1996;DHT22;38556;47.068;15.408;2023-04-24T10:27:51;13.00;99.90
1996;DHT22;38556;47.068;15.408;2023-04-24T10:30:19;13.00;99.90
1996;DHT22;38556;47.068;15.408;2023-04-24T10:32:47;12.90;99.90
1996;DHT22;38556;47.068;15.408;2023-04-24T10:35:15;12.90;99.90
1996;DHT22;38556;47.068;15.408;2023-04-24T10:40:17;13.10;99.90
1996;DHT22;38556;47.068;15.408;2023-04-24T10:42:49;13.10;99.90
1996;DHT22;38556;47.068;15.408;2023-04-24T10:45:19;13.10;99.90
1996;DHT22;38556;47.068;15.408;2023-04-24T10:47:58;13.20;99.90
1996;DHT22;38556;47.068;15.408;2023-04-24T10:50:27;13.20;99.90
1996;DHT22;38556;47.068;15.408;2023-04-24T10:53:06;13.30;99.90
1996;DHT22;38556;47.068;15.408;2023-04-24T10:55:47;13.30;99.90
1996;DHT22;38556;47.068;15.408;2023-04-24T10:58:16;13.50;99.90
1996;DHT22;38556;47.068;15.408;2023-04-24T11:00:56;13.50;99.90
1996;DHT22;38556;47.068;15.408;2023-04-24T11:03:26;13.70;99.90
1996;DHT22;38556;47.068;15.408;2023-04-24T11:05:56;13.80;99.90
1996;DHT22;38556;47.068;15.408;2023-04-24T11:08:29;13.70;99.90
1996;DHT22;38556;47.068;15.408;2023-04-24T11:11:02;13.70;99.90
1996;DHT22;38556;47.068;15.408;2023-04-24T11:14:03;13.60;99.90
1996;DHT22;38556;47.068;15.408;2023-04-24T11:16:33;13.90;99.90
1996;DHT22;38556;47.068;15.408;2023-04-24T11:19:05;14.10;99.90
1996;DHT22;38556;47.068;15.408;2023-04-24T11:21:39;14.20;99.90
1996;DHT22;38556;47.068;15.408;2023-04-24T11:24:25;14.20;99.90
1996;DHT22;38556;47.068;15.408;2023-04-24T11:26:53;14.40;99.90
1996;DHT22;38556;47.068;15.408;2023-04-24T11:29:23;14.30;99.90
1996;DHT22;38556;47.068;15.408;2023-04-24T11:32:18;14.60;99.90
1996;DHT22;38556;47.068;15.408;2023-04-24T11:34:50;14.70;99.90
1996;DHT22;38556;47.068;15.408;2023-04-24T11:37:18;14.70;99.90
1996;DHT22;38556;47.068;15.408;2023-04-24T11:39:45;14.90;99.90
1996;DHT22;38556;47.068;15.408;2023-04-24T11:42:14;14.90;99.90
1996;DHT22;38556;47.068;15.408;2023-04-24T11:44:44;14.80;99.90
1996;DHT22;38556;47.068;15.408;2023-04-24T11:47:13;14.70;99.90
1996;DHT22;38556;47.068;15.408;2023-04-24T11:49:41;14.70;99.90
1996;DHT22;38556;47.068;15.408;2023-04-24T11:52:08;14.70;99.90
1996;DHT22;38556;47.068;15.408;2023-04-24T11:54:36;14.80;99.90
1996;DHT22;38556;47.068;15.408;2023-04-24T11:57:04;15.10;99.90
1996;DHT22;38556;47.068;15.408;2023-04-24T11:59:36;15.10;99.90
1996;DHT22;38556;47.068;15.408;2023-04-24T12:02:05;15.20;99.90
1996;DHT22;38556;47.068;15.408;2023-04-24T12:04:40;15.30;99.90
1996;DHT22;38556;47.068;15.408;2023-04-24T12:07:08;15.10;99.90
1996;DHT22;38556;47.068;15.408;2023-04-24T12:09:43;15.10;99.90
1996;DHT22;38556;47.068;15.408;2023-04-24T12:12:12;15.20;99.90
1996;DHT22;38556;47.068;15.408;2023-04-24T12:14:58;15.30;99.90
1996;DHT22;38556;47.068;15.408;2023-04-24T12:17:28;15.40;99.90
1996;DHT22;38556;47.068;15.408;2023-04-24T12:20:00;15.30;99.90
1996;DHT22;38556;47.068;15.408;2023-04-24T12:22:28;15.20;99.90
1996;DHT22;38556;47.068;15.408;2023-04-24T12:24:57;15.10;99.90
1996;DHT22;38556;47.068;15.408;2023-04-24T12:27:25;15.30;99.90
1996;DHT22;38556;47.068;15.408;2023-04-24T12:29:53;15.30;99.90
1996;DHT22;38556;47.068;15.408;2023-04-24T12:32:21;15.50;99.90
1996;DHT22;38556;47.068;15.408;2023-04-24T12:34:51;15.50;99.90
1996;DHT22;38556;47.068;15.408;2023-04-24T12:37:18;15.50;99.90
1996;DHT22;38556;47.068;15.408;2023-04-24T12:40:03;15.60;99.90
1996;DHT22;38556;47.068;15.408;2023-04-24T12:42:31;15.60;99.90
1996;DHT22;38556;47.068;15.408;2023-04-24T12:45:01;15.60;99.90
1996;DHT22;38556;47.068;15.408;2023-04-24T12:47:30;15.60;99.90
1996;DHT22;38556;47.068;15.408;2023-04-24T12:50:00;15.60;99.90
1996;DHT22;38556;47.068;15.408;2023-04-24T12:52:29;15.60;99.90
1996;DHT22;38556;47.068;15.408;2023-04-24T12:54:58;15.50;99.90
1996;DHT22;38556;47.068;15.408;2023-04-24T12:57:26;15.60;99.90
1996;DHT22;38556;47.068;15.408;2023-04-24T12:59:54;15.80;99.90
1996;DHT22;38556;47.068;15.408;2023-04-24T13:02:22;15.90;99.90
1996;DHT22;38556;47.068;15.408;2023-04-24T13:04:50;16.00;99.90
1996;DHT22;38556;47.068;15.408;2023-04-24T13:07:18;16.20;99.90
1996;DHT22;38556;47.068;15.408;2023-04-24T13:09:47;16.50;99.90
1996;DHT22;38556;47.068;15.408;2023-04-24T13:12:15;17.00;99.90
1996;DHT22;38556;47.068;15.408;2023-04-24T13:14:42;17.30;99.90
1996;DHT22;38556;47.068;15.408;2023-04-24T13:19:39;17.60;99.90
1996;DHT22;38556;47.068;15.408;2023-04-24T13:22:08;17.80;99.90
1996;DHT22;38556;47.068;15.408;2023-04-24T13:24:37;17.90;99.90
1996;DHT22;38556;47.068;15.408;2023-04-24T13:27:06;18.00;99.90
1996;DHT22;38556;47.068;15.408;2023-04-24T13:29:33;18.00;99.90
1996;DHT22;38556;47.068;15.408;2023-04-24T13:32:00;17.70;99.90
1996;DHT22;38556;47.068;15.408;2023-04-24T13:34:27;17.80;99.90
1996;DHT22;38556;47.068;15.408;2023-04-24T13:36:57;17.90;99.90
1996;DHT22;38556;47.068;15.408;2023-04-24T13:39:24;17.90;99.90
1996;DHT22;38556;47.068;15.408;2023-04-24T13:41:54;17.70;99.90
1996;DHT22;38556;47.068;15.408;2023-04-24T13:44:22;17.70;99.90
1996;DHT22;38556;47.068;15.408;2023-04-24T13:46:51;17.70;99.90
1996;DHT22;38556;47.068;15.408;2023-04-24T13:49:20;17.50;99.90
1996;DHT22;38556;47.068;15.408;2023-04-24T13:51:48;15.00;99.50
1996;DHT22;38556;47.068;15.408;2023-04-24T13:54:15;17.40;99.90
1996;DHT22;38556;47.068;15.408;2023-04-24T13:56:43;17.30;99.90
1996;DHT22;38556;47.068;15.408;2023-04-24T13:59:12;17.00;99.90
1996;DHT22;38556;47.068;15.408;2023-04-24T14:01:39;16.90;99.90
1996;DHT22;38556;47.068;15.408;2023-04-24T14:04:07;16.80;99.90
1996;DHT22;38556;47.068;15.408;2023-04-24T14:06:34;16.80;99.90
1996;DHT22;38556;47.068;15.408;2023-04-24T14:09:01;16.70;99.90
1996;DHT22;38556;47.068;15.408;2023-04-24T14:11:29;16.60;99.90
1996;DHT22;38556;47.068;15.408;2023-04-24T14:13:57;16.60;99.90
1996;DHT22;38556;47.068;15.408;2023-04-24T14:16:25;16.60;99.90
1996;DHT22;38556;47.068;15.408;2023-04-24T14:18:53;16.70;99.90
1996;DHT22;38556;47.068;15.408;2023-04-24T14:21:20;16.70;99.90
1996;DHT22;38556;47.068;15.408;2023-04-24T14:23:47;16.60;99.90
1996;DHT22;38556;47.068;15.408;2023-04-24T14:26:15;16.50;99.90
1996;DHT22;38556;47.068;15.408;2023-04-24T14:28:42;16.50;99.90
1996;DHT22;38556;47.068;15.408;2023-04-24T14:31:09;16.40;99.90
1996;DHT22;38556;47.068;15.408;2023-04-24T14:33:38;16.40;99.90
1996;DHT22;38556;47.068;15.408;2023-04-24T14:36:06;16.40;99.90
1996;DHT22;38556;47.068;15.408;2023-04-24T14:38:33;16.70;99.90
1996;DHT22;38556;47.068;15.408;2023-04-24T14:41:01;16.80;99.90
1996;DHT22;38556;47.068;15.408;2023-04-24T14:43:34;16.90;99.90
1996;DHT22;38556;47.068;15.408;2023-04-24T14:46:02;16.90;99.90
1996;DHT22;38556;47.068;15.408;2023-04-24T14:48:29;17.00;99.90
1996;DHT22;38556;47.068;15.408;2023-04-24T14:50:58;17.00;99.90
1996;DHT22;38556;47.068;15.408;2023-04-24T14:53:26;17.00;99.90
1996;DHT22;38556;47.068;15.408;2023-04-24T14:55:53;16.90;99.90
1996;DHT22;38556;47.068;15.408;2023-04-24T14:58:21;16.70;99.90
1996;DHT22;38556;47.068;15.408;2023-04-24T15:00:48;16.60;99.90
1996;DHT22;38556;47.068;15.408;2023-04-24T15:03:18;16.60;99.90
1996;DHT22;38556;47.068;15.408;2023-04-24T15:05:46;16.60;99.90
1996;DHT22;38556;47.068;15.408;2023-04-24T15:08:15;16.50;99.90
1996;DHT22;38556;47.068;15.408;2023-04-24T15:10:42;16.30;99.90
1996;DHT22;38556;47.068;15.408;2023-04-24T15:13:10;16.40;99.90
1996;DHT22;38556;47.068;15.408;2023-04-24T15:15:37;16.20;99.90
1996;DHT22;38556;47.068;15.408;2023-04-24T15:18:05;15.90;99.90
1996;DHT22;38556;47.068;15.408;2023-04-24T15:20:34;15.90;99.90
1996;DHT22;38556;47.068;15.408;2023-04-24T15:23:01;15.90;99.90
1996;DHT22;38556;47.068;15.408;2023-04-24T15:25:30;15.90;99.90
1996;DHT22;38556;47.068;15.408;2023-04-24T15:27:58;15.90;99.90
1996;DHT22;38556;47.068;15.408;2023-04-24T15:30:26;15.80;99.90
1996;DHT22;38556;47.068;15.408;2023-04-24T15:32:53;15.70;99.90
1996;DHT22;38556;47.068;15.408;2023-04-24T15:35:20;15.70;99.90
1996;DHT22;38556;47.068;15.408;2023-04-24T15:37:48;15.70;99.90
1996;DHT22;38556;47.068;15.408;2023-04-24T15:40:16;15.70;99.90
1996;DHT22;38556;47.068;15.408;2023-04-24T15:42:45;15.70;99.90
1996;DHT22;38556;47.068;15.408;2023-04-24T15:45:12;15.60;99.90
1996;DHT22;38556;47.068;15.408;2023-04-24T15:47:39;15.20;99.90
1996;DHT22;38556;47.068;15.408;2023-04-24T15:50:08;14.90;99.90
1996;DHT22;38556;47.068;15.408;2023-04-24T15:52:36;13.50;99.90
1996;DHT22;38556;47.068;15.408;2023-04-24T15:55:04;13.20;99.90
1996;DHT22;38556;47.068;15.408;2023-04-24T15:57:31;12.90;99.90
1996;DHT22;38556;47.068;15.408;2023-04-24T16:00:00;12.90;99.90
1996;DHT22;38556;47.068;15.408;2023-04-24T16:02:30;12.70;99.90
1996;DHT22;38556;47.068;15.408;2023-04-24T16:04:57;12.70;99.90